• vieta
  • image
  • image
  • image
mod_vvisit_countermod_vvisit_countermod_vvisit_countermod_vvisit_countermod_vvisit_countermod_vvisit_counter
mod_vvisit_counterŠiandien19
mod_vvisit_counterVakar853
mod_vvisit_counterŠią savaitę3111
mod_vvisit_counterPraėjusią savaitę3711
mod_vvisit_counterŠį mėnesį13567
mod_vvisit_counterPraėjusį mėnesį13698
mod_vvisit_counterViso326137

Mes turime: 2 svečius, 2 bots online
Jūsų IP: 54.242.145.244
 , 
Šiandien: Bal 29, 2016

Šiandien

Penktadienis, 29 Balandis 2016

Orų prognozė

Šiauliai 1 °C
   

Orų prognozė aviacijai

[source: ADDS]
METAR
EYSA 282320Z AUTO 14007KT 8000NDV BR NCD 01/00 Q1019 =
TAF
TAF EYSA 282300Z 2900/2909 15006KT 4000 BR NSC TEMPO 2900/2902 0800 FG VV003 TEMPO 2902/2904 0600 FG VV002 BECMG 2905/2907 9000 SCT030 =
SR / SS: 02:50 / 18:00 UTC (EYSA 2016-04-29)

Paieška

Lankytojai

Mes turime 4 svečius online

tic logo lt